createdAt,value
2019-02-23T00:01:48.498Z,40.55
2019-02-23T00:11:50.519Z,39.37
2019-02-23T00:21:52.656Z,35.58
2019-02-23T00:31:54.762Z,34.67
2019-02-23T00:41:56.904Z,34.08
2019-02-23T00:52:00.856Z,31.68
2019-02-23T01:02:03.014Z,33.70
2019-02-23T01:12:05.157Z,29.27
2019-02-23T01:22:07.439Z,30.43
2019-02-23T01:32:09.676Z,26.60
2019-02-23T01:42:11.651Z,24.00
2019-02-23T01:52:13.621Z,23.12
2019-02-23T02:02:15.730Z,25.70
2019-02-23T02:12:17.836Z,29.02
2019-02-23T02:22:20.141Z,16.70
2019-02-23T02:32:22.124Z,20.62
2019-02-23T02:42:24.128Z,19.05
2019-02-23T02:52:26.461Z,24.27
2019-02-23T03:02:28.438Z,21.90
2019-02-23T03:12:30.383Z,23.12
2019-02-23T03:22:32.626Z,24.63
2019-02-23T03:32:34.791Z,18.67
2019-02-23T03:42:37.008Z,25.57
2019-02-23T03:52:39.315Z,21.57
2019-02-23T04:02:41.394Z,25.72
2019-02-23T04:12:43.749Z,24.92
2019-02-23T04:22:45.715Z,25.75
2019-02-23T04:32:47.793Z,23.83
2019-02-23T04:42:49.727Z,29.35
2019-02-23T04:52:51.719Z,27.42
2019-02-23T05:02:53.822Z,28.38
2019-02-23T05:12:56.007Z,25.43
2019-02-23T05:22:58.059Z,27.15
2019-02-23T05:33:00.005Z,29.42
2019-02-23T05:43:02.207Z,29.90
2019-02-23T05:53:04.457Z,31.80
2019-02-23T06:03:06.424Z,30.00
2019-02-23T06:13:08.696Z,31.90
2019-02-23T06:23:10.800Z,30.25
2019-02-23T06:33:12.773Z,31.60
2019-02-23T06:43:15.058Z,33.67
2019-02-23T06:53:17.067Z,29.63
2019-02-23T07:03:19.258Z,28.20
2019-02-23T07:13:21.359Z,35.08
2019-02-23T07:23:23.338Z,28.52
2019-02-23T07:33:32.923Z,29.87
2019-02-23T07:43:29.099Z,30.40
2019-02-23T07:53:31.086Z,24.85
2019-02-23T08:03:33.068Z,26.95
2019-02-23T08:13:35.191Z,31.62
2019-02-23T08:23:37.104Z,25.60
2019-02-23T08:33:39.363Z,25.50
2019-02-23T08:43:42.082Z,25.55
2019-02-23T08:53:44.234Z,27.33
2019-02-23T09:03:46.335Z,30.70
2019-02-23T09:13:48.446Z,28.85
2019-02-23T09:23:50.615Z,27.13
2019-02-23T09:33:52.707Z,27.93
2019-02-23T09:43:54.870Z,22.30
2019-02-23T09:53:56.972Z,24.70
2019-02-23T10:03:59.237Z,25.85
2019-02-23T10:14:01.571Z,26.40
2019-02-23T10:24:03.537Z,23.45
2019-02-23T10:34:05.783Z,27.65
2019-02-23T10:44:08.317Z,21.12
2019-02-23T10:54:10.270Z,20.00
2019-02-23T11:04:31.702Z,24.57
2019-02-23T11:14:34.027Z,29.63
2019-02-23T11:24:36.001Z,23.87
2019-02-23T11:34:37.951Z,18.62
2019-02-23T11:44:40.218Z,22.02
2019-02-23T11:54:44.117Z,21.67
2019-02-23T12:04:46.117Z,17.45
2019-02-23T12:14:48.466Z,18.02
2019-02-23T12:24:50.490Z,18.03
2019-02-23T12:34:52.662Z,17.20
2019-02-23T12:44:54.619Z,13.58
2019-02-23T12:54:56.646Z,15.98
2019-02-23T13:04:58.725Z,19.90
2019-02-23T13:15:14.295Z,14.83
2019-02-23T13:25:43.162Z,13.25
2019-02-23T13:36:37.917Z,11.18
2019-02-23T13:47:43.387Z,11.88
2019-02-23T13:57:58.773Z,12.85
2019-02-23T14:08:24.070Z,12.73
2019-02-23T14:18:58.123Z,15.55
2019-02-23T14:29:31.589Z,14.70
2019-02-23T14:40:08.626Z,12.15
2019-02-23T14:50:55.932Z,11.08
2019-02-23T15:01:25.079Z,10.88
2019-02-23T15:11:49.938Z,14.47
2019-02-23T15:22:36.439Z,10.28
2019-02-23T15:33:32.083Z,12.47
2019-02-23T15:43:45.106Z,9.93
2019-02-23T15:53:47.600Z,12.23
2019-02-23T16:03:49.543Z,11.50
2019-02-23T16:13:51.780Z,15.45
2019-02-23T16:23:53.855Z,12.70
2019-02-23T16:33:55.873Z,7.80
2019-02-23T16:43:57.828Z,8.10
2019-02-23T16:54:00.126Z,13.95
2019-02-23T17:04:02.088Z,8.17
2019-02-23T17:14:04.115Z,12.35
2019-02-23T17:24:06.292Z,11.65
2019-02-23T17:34:08.571Z,13.85
2019-02-23T17:44:12.467Z,16.30
2019-02-23T17:54:14.543Z,19.73
2019-02-23T18:04:16.604Z,11.75
2019-02-23T18:14:18.767Z,13.53
2019-02-23T18:24:21.058Z,14.47
2019-02-23T18:34:23.544Z,20.50
2019-02-23T18:44:25.742Z,18.13
2019-02-23T18:54:27.809Z,20.82
2019-02-23T19:04:29.814Z,15.65
2019-02-23T19:14:31.863Z,17.32
2019-02-23T19:24:34.045Z,20.37
2019-02-23T19:34:36.302Z,15.43
2019-02-23T19:44:38.419Z,16.70
2019-02-23T19:54:40.535Z,24.02
2019-02-23T20:04:42.708Z,21.00
2019-02-23T20:14:45.363Z,21.50
2019-02-23T20:24:48.498Z,25.33
2019-02-23T20:34:50.839Z,18.12
2019-02-23T20:44:52.822Z,22.65
2019-02-23T20:54:54.827Z,17.40
2019-02-23T21:04:56.808Z,18.25
2019-02-23T21:14:59.054Z,24.80
2019-02-23T21:25:01.316Z,16.27
2019-02-23T21:35:04.200Z,19.77
2019-02-23T21:45:07.699Z,20.33
2019-02-23T21:55:09.960Z,18.10
2019-02-23T22:05:12.839Z,21.12
2019-02-23T22:15:15.421Z,19.77
2019-02-23T22:25:17.484Z,17.70
2019-02-23T22:35:19.454Z,17.70
2019-02-23T22:45:21.403Z,25.48
2019-02-23T22:55:23.386Z,24.00
2019-02-23T23:05:25.595Z,15.70
2019-02-23T23:15:27.919Z,19.65
2019-02-23T23:25:29.984Z,17.42
2019-02-23T23:35:32.288Z,17.50
2019-02-23T23:45:34.631Z,18.27
2019-02-23T23:55:36.579Z,18.20
